sensor_id;sensor_type;location;lat;lon;timestamp;P1;durP1;ratioP1;P2;durP2;ratioP2
72676;SDS011;60755;51.374;10.662;2023-04-25T00:01:02;6.97;;;5.07;;
72676;SDS011;60755;51.374;10.662;2023-04-25T00:03:30;8.13;;;4.80;;
72676;SDS011;60755;51.374;10.662;2023-04-25T00:05:58;6.07;;;5.17;;
72676;SDS011;60755;51.374;10.662;2023-04-25T00:08:28;6.57;;;4.90;;
72676;SDS011;60755;51.374;10.662;2023-04-25T00:10:56;6.90;;;5.03;;
72676;SDS011;60755;51.374;10.662;2023-04-25T00:13:24;6.83;;;5.20;;
72676;SDS011;60755;51.374;10.662;2023-04-25T00:15:52;6.20;;;4.70;;
72676;SDS011;60755;51.374;10.662;2023-04-25T00:18:19;5.60;;;5.10;;
72676;SDS011;60755;51.374;10.662;2023-04-25T00:20:47;6.93;;;5.70;;
72676;SDS011;60755;51.374;10.662;2023-04-25T00:23:15;8.77;;;4.87;;
72676;SDS011;60755;51.374;10.662;2023-04-25T00:25:44;7.57;;;5.70;;
72676;SDS011;60755;51.374;10.662;2023-04-25T00:28:12;6.53;;;5.10;;
72676;SDS011;60755;51.374;10.662;2023-04-25T00:30:41;7.37;;;4.97;;
72676;SDS011;60755;51.374;10.662;2023-04-25T00:33:09;7.23;;;5.40;;
72676;SDS011;60755;51.374;10.662;2023-04-25T00:35:37;7.53;;;5.50;;
72676;SDS011;60755;51.374;10.662;2023-04-25T00:38:04;10.27;;;5.37;;
72676;SDS011;60755;51.374;10.662;2023-04-25T00:40:32;7.40;;;5.40;;
72676;SDS011;60755;51.374;10.662;2023-04-25T00:42:59;8.67;;;5.60;;
72676;SDS011;60755;51.374;10.662;2023-04-25T00:45:27;7.03;;;5.90;;
72676;SDS011;60755;51.374;10.662;2023-04-25T00:47:56;8.10;;;5.50;;
72676;SDS011;60755;51.374;10.662;2023-04-25T00:50:24;10.37;;;5.97;;
72676;SDS011;60755;51.374;10.662;2023-04-25T00:52:51;9.80;;;6.00;;
72676;SDS011;60755;51.374;10.662;2023-04-25T00:55:19;12.37;;;6.27;;
72676;SDS011;60755;51.374;10.662;2023-04-25T00:57:46;12.10;;;6.57;;
72676;SDS011;60755;51.374;10.662;2023-04-25T01:00:14;9.17;;;7.20;;
72676;SDS011;60755;51.374;10.662;2023-04-25T01:02:43;11.03;;;7.03;;
72676;SDS011;60755;51.374;10.662;2023-04-25T01:05:13;9.30;;;6.47;;
72676;SDS011;60755;51.374;10.662;2023-04-25T01:07:40;9.83;;;6.70;;
72676;SDS011;60755;51.374;10.662;2023-04-25T01:10:08;8.87;;;6.50;;
72676;SDS011;60755;51.374;10.662;2023-04-25T01:12:37;9.87;;;6.20;;
72676;SDS011;60755;51.374;10.662;2023-04-25T01:15:04;9.97;;;6.47;;
72676;SDS011;60755;51.374;10.662;2023-04-25T01:17:33;9.97;;;6.83;;
72676;SDS011;60755;51.374;10.662;2023-04-25T01:20:02;9.27;;;7.10;;
72676;SDS011;60755;51.374;10.662;2023-04-25T01:22:32;14.37;;;7.27;;
72676;SDS011;60755;51.374;10.662;2023-04-25T01:25:00;9.60;;;6.70;;
72676;SDS011;60755;51.374;10.662;2023-04-25T01:27:28;11.47;;;7.00;;
72676;SDS011;60755;51.374;10.662;2023-04-25T01:29:56;12.03;;;7.10;;
72676;SDS011;60755;51.374;10.662;2023-04-25T01:32:24;10.97;;;7.40;;
72676;SDS011;60755;51.374;10.662;2023-04-25T01:34:51;11.90;;;7.00;;
72676;SDS011;60755;51.374;10.662;2023-04-25T01:37:19;10.80;;;7.53;;
72676;SDS011;60755;51.374;10.662;2023-04-25T01:39:48;15.07;;;7.80;;
72676;SDS011;60755;51.374;10.662;2023-04-25T01:42:15;11.73;;;7.57;;
72676;SDS011;60755;51.374;10.662;2023-04-25T01:44:43;15.17;;;8.00;;
72676;SDS011;60755;51.374;10.662;2023-04-25T01:47:10;13.57;;;8.70;;
72676;SDS011;60755;51.374;10.662;2023-04-25T01:49:37;16.77;;;9.50;;
72676;SDS011;60755;51.374;10.662;2023-04-25T01:52:04;16.73;;;9.77;;
72676;SDS011;60755;51.374;10.662;2023-04-25T01:54:32;15.37;;;9.77;;
72676;SDS011;60755;51.374;10.662;2023-04-25T01:57:01;19.80;;;12.17;;
72676;SDS011;60755;51.374;10.662;2023-04-25T01:59:30;21.73;;;12.20;;
72676;SDS011;60755;51.374;10.662;2023-04-25T02:02:15;23.87;;;12.00;;
72676;SDS011;60755;51.374;10.662;2023-04-25T02:04:43;21.47;;;12.07;;
72676;SDS011;60755;51.374;10.662;2023-04-25T02:07:12;21.87;;;12.77;;
72676;SDS011;60755;51.374;10.662;2023-04-25T02:10:00;18.33;;;10.50;;
72676;SDS011;60755;51.374;10.662;2023-04-25T02:12:32;28.47;;;13.80;;
72676;SDS011;60755;51.374;10.662;2023-04-25T02:15:23;28.33;;;12.93;;
72676;SDS011;60755;51.374;10.662;2023-04-25T02:17:55;17.87;;;10.83;;
72676;SDS011;60755;51.374;10.662;2023-04-25T02:20:22;16.10;;;9.93;;
72676;SDS011;60755;51.374;10.662;2023-04-25T02:22:50;14.20;;;9.60;;
72676;SDS011;60755;51.374;10.662;2023-04-25T02:25:19;14.70;;;10.23;;
72676;SDS011;60755;51.374;10.662;2023-04-25T02:27:48;18.00;;;9.50;;
72676;SDS011;60755;51.374;10.662;2023-04-25T02:30:16;15.97;;;10.10;;
72676;SDS011;60755;51.374;10.662;2023-04-25T02:32:44;18.33;;;9.90;;
72676;SDS011;60755;51.374;10.662;2023-04-25T02:35:11;20.87;;;9.17;;
72676;SDS011;60755;51.374;10.662;2023-04-25T02:37:39;19.43;;;9.10;;
72676;SDS011;60755;51.374;10.662;2023-04-25T02:40:07;17.50;;;9.13;;
72676;SDS011;60755;51.374;10.662;2023-04-25T02:42:35;13.97;;;8.53;;
72676;SDS011;60755;51.374;10.662;2023-04-25T02:45:04;14.30;;;8.77;;
72676;SDS011;60755;51.374;10.662;2023-04-25T02:47:32;17.33;;;9.17;;
72676;SDS011;60755;51.374;10.662;2023-04-25T02:49:59;19.77;;;8.97;;
72676;SDS011;60755;51.374;10.662;2023-04-25T02:52:26;19.63;;;9.70;;
72676;SDS011;60755;51.374;10.662;2023-04-25T02:55:01;17.90;;;9.27;;
72676;SDS011;60755;51.374;10.662;2023-04-25T02:57:30;17.57;;;9.37;;
72676;SDS011;60755;51.374;10.662;2023-04-25T02:59:57;18.03;;;9.03;;
72676;SDS011;60755;51.374;10.662;2023-04-25T03:02:26;17.20;;;8.90;;
72676;SDS011;60755;51.374;10.662;2023-04-25T03:04:53;18.93;;;9.47;;
72676;SDS011;60755;51.374;10.662;2023-04-25T03:07:20;17.07;;;9.43;;
72676;SDS011;60755;51.374;10.662;2023-04-25T03:09:48;24.20;;;8.67;;
72676;SDS011;60755;51.374;10.662;2023-04-25T03:12:15;16.83;;;9.00;;
72676;SDS011;60755;51.374;10.662;2023-04-25T03:14:43;18.23;;;10.00;;
72676;SDS011;60755;51.374;10.662;2023-04-25T03:17:10;15.93;;;9.10;;
72676;SDS011;60755;51.374;10.662;2023-04-25T03:19:38;19.33;;;9.43;;
72676;SDS011;60755;51.374;10.662;2023-04-25T03:22:06;18.50;;;9.00;;
72676;SDS011;60755;51.374;10.662;2023-04-25T03:24:34;18.93;;;9.83;;
72676;SDS011;60755;51.374;10.662;2023-04-25T03:27:02;17.17;;;9.03;;
72676;SDS011;60755;51.374;10.662;2023-04-25T03:29:30;14.37;;;8.50;;
72676;SDS011;60755;51.374;10.662;2023-04-25T03:31:59;13.30;;;7.97;;
72676;SDS011;60755;51.374;10.662;2023-04-25T03:34:27;17.20;;;9.53;;
72676;SDS011;60755;51.374;10.662;2023-04-25T03:36:55;18.83;;;9.03;;
72676;SDS011;60755;51.374;10.662;2023-04-25T03:39:23;14.40;;;9.43;;
72676;SDS011;60755;51.374;10.662;2023-04-25T03:41:51;17.10;;;9.77;;
72676;SDS011;60755;51.374;10.662;2023-04-25T03:44:19;17.33;;;9.10;;
72676;SDS011;60755;51.374;10.662;2023-04-25T03:46:47;17.93;;;8.90;;
72676;SDS011;60755;51.374;10.662;2023-04-25T03:49:14;15.27;;;8.50;;
72676;SDS011;60755;51.374;10.662;2023-04-25T03:52:15;18.97;;;8.77;;
72676;SDS011;60755;51.374;10.662;2023-04-25T03:54:44;16.77;;;8.77;;
72676;SDS011;60755;51.374;10.662;2023-04-25T03:57:15;15.83;;;7.90;;
72676;SDS011;60755;51.374;10.662;2023-04-25T03:59:43;13.63;;;8.17;;
72676;SDS011;60755;51.374;10.662;2023-04-25T04:02:12;13.80;;;8.37;;
72676;SDS011;60755;51.374;10.662;2023-04-25T04:04:40;13.07;;;7.67;;
72676;SDS011;60755;51.374;10.662;2023-04-25T04:07:10;18.17;;;8.50;;
72676;SDS011;60755;51.374;10.662;2023-04-25T04:09:41;15.97;;;7.93;;
72676;SDS011;60755;51.374;10.662;2023-04-25T04:12:14;15.13;;;7.43;;
72676;SDS011;60755;51.374;10.662;2023-04-25T04:14:42;12.33;;;7.07;;
72676;SDS011;60755;51.374;10.662;2023-04-25T04:17:09;13.13;;;7.50;;
72676;SDS011;60755;51.374;10.662;2023-04-25T04:19:36;13.77;;;7.20;;
72676;SDS011;60755;51.374;10.662;2023-04-25T04:22:09;14.60;;;7.10;;
72676;SDS011;60755;51.374;10.662;2023-04-25T04:24:37;13.30;;;6.90;;
72676;SDS011;60755;51.374;10.662;2023-04-25T04:27:08;11.27;;;6.87;;
72676;SDS011;60755;51.374;10.662;2023-04-25T04:29:42;11.80;;;6.80;;
72676;SDS011;60755;51.374;10.662;2023-04-25T04:32:15;12.93;;;6.80;;
72676;SDS011;60755;51.374;10.662;2023-04-25T04:34:43;21.13;;;6.70;;
72676;SDS011;60755;51.374;10.662;2023-04-25T04:37:13;9.27;;;6.23;;
72676;SDS011;60755;51.374;10.662;2023-04-25T04:39:41;9.37;;;5.80;;
72676;SDS011;60755;51.374;10.662;2023-04-25T04:42:23;8.63;;;5.63;;
72676;SDS011;60755;51.374;10.662;2023-04-25T04:45:29;14.53;;;6.70;;
72676;SDS011;60755;51.374;10.662;2023-04-25T04:48:19;12.10;;;6.63;;
72676;SDS011;60755;51.374;10.662;2023-04-25T04:51:03;9.93;;;6.20;;
72676;SDS011;60755;51.374;10.662;2023-04-25T04:54:09;10.10;;;6.33;;
72676;SDS011;60755;51.374;10.662;2023-04-25T04:57:03;12.60;;;7.10;;
72676;SDS011;60755;51.374;10.662;2023-04-25T04:59:50;13.93;;;7.50;;
72676;SDS011;60755;51.374;10.662;2023-04-25T05:02:47;11.23;;;7.67;;
72676;SDS011;60755;51.374;10.662;2023-04-25T05:05:41;14.83;;;7.70;;
72676;SDS011;60755;51.374;10.662;2023-04-25T05:08:11;13.07;;;8.37;;
72676;SDS011;60755;51.374;10.662;2023-04-25T05:11:01;17.90;;;8.53;;
72676;SDS011;60755;51.374;10.662;2023-04-25T05:13:42;14.27;;;8.20;;
72676;SDS011;60755;51.374;10.662;2023-04-25T05:16:29;15.23;;;7.77;;
72676;SDS011;60755;51.374;10.662;2023-04-25T05:19:13;12.27;;;8.53;;
72676;SDS011;60755;51.374;10.662;2023-04-25T05:21:53;16.47;;;8.60;;
72676;SDS011;60755;51.374;10.662;2023-04-25T05:24:23;15.27;;;9.47;;
72676;SDS011;60755;51.374;10.662;2023-04-25T05:27:10;17.20;;;9.90;;
72676;SDS011;60755;51.374;10.662;2023-04-25T05:30:09;19.30;;;9.73;;
72676;SDS011;60755;51.374;10.662;2023-04-25T05:32:56;19.70;;;10.20;;
72676;SDS011;60755;51.374;10.662;2023-04-25T05:35:23;15.07;;;8.97;;
72676;SDS011;60755;51.374;10.662;2023-04-25T05:37:50;14.53;;;8.57;;
72676;SDS011;60755;51.374;10.662;2023-04-25T05:40:21;15.17;;;9.67;;
72676;SDS011;60755;51.374;10.662;2023-04-25T05:43:07;13.43;;;8.60;;
72676;SDS011;60755;51.374;10.662;2023-04-25T05:45:45;12.63;;;8.10;;
72676;SDS011;60755;51.374;10.662;2023-04-25T05:48:46;12.33;;;7.70;;
72676;SDS011;60755;51.374;10.662;2023-04-25T05:51:32;14.30;;;8.27;;
72676;SDS011;60755;51.374;10.662;2023-04-25T05:54:08;12.90;;;8.77;;
72676;SDS011;60755;51.374;10.662;2023-04-25T05:56:35;14.33;;;9.13;;
72676;SDS011;60755;51.374;10.662;2023-04-25T05:59:02;14.37;;;9.20;;
72676;SDS011;60755;51.374;10.662;2023-04-25T06:01:30;11.90;;;8.40;;
72676;SDS011;60755;51.374;10.662;2023-04-25T06:03:58;17.13;;;9.03;;
72676;SDS011;60755;51.374;10.662;2023-04-25T06:06:27;15.97;;;9.20;;
72676;SDS011;60755;51.374;10.662;2023-04-25T06:08:54;14.07;;;9.83;;
72676;SDS011;60755;51.374;10.662;2023-04-25T06:11:21;16.17;;;9.80;;
72676;SDS011;60755;51.374;10.662;2023-04-25T06:13:48;13.10;;;9.13;;
72676;SDS011;60755;51.374;10.662;2023-04-25T06:16:16;15.10;;;9.37;;
72676;SDS011;60755;51.374;10.662;2023-04-25T06:18:43;10.87;;;8.60;;
72676;SDS011;60755;51.374;10.662;2023-04-25T06:21:12;14.17;;;9.13;;
72676;SDS011;60755;51.374;10.662;2023-04-25T06:23:39;16.30;;;9.00;;
72676;SDS011;60755;51.374;10.662;2023-04-25T06:26:09;14.20;;;9.83;;
72676;SDS011;60755;51.374;10.662;2023-04-25T06:28:39;15.43;;;8.97;;
72676;SDS011;60755;51.374;10.662;2023-04-25T06:31:06;11.90;;;8.20;;
72676;SDS011;60755;51.374;10.662;2023-04-25T06:33:33;10.57;;;7.47;;
72676;SDS011;60755;51.374;10.662;2023-04-25T06:36:01;11.90;;;7.20;;
72676;SDS011;60755;51.374;10.662;2023-04-25T06:38:31;10.53;;;6.67;;
72676;SDS011;60755;51.374;10.662;2023-04-25T06:41:00;6.90;;;5.60;;
72676;SDS011;60755;51.374;10.662;2023-04-25T06:43:31;9.30;;;7.07;;
72676;SDS011;60755;51.374;10.662;2023-04-25T06:46:13;8.63;;;6.20;;
72676;SDS011;60755;51.374;10.662;2023-04-25T06:48:44;8.63;;;5.97;;
72676;SDS011;60755;51.374;10.662;2023-04-25T06:51:11;24.03;;;18.27;;
72676;SDS011;60755;51.374;10.662;2023-04-25T06:53:41;10.10;;;8.20;;
72676;SDS011;60755;51.374;10.662;2023-04-25T06:56:13;8.93;;;8.03;;
72676;SDS011;60755;51.374;10.662;2023-04-25T06:58:51;8.50;;;5.37;;
72676;SDS011;60755;51.374;10.662;2023-04-25T07:01:24;7.53;;;5.60;;
72676;SDS011;60755;51.374;10.662;2023-04-25T07:03:51;14.10;;;8.17;;
72676;SDS011;60755;51.374;10.662;2023-04-25T07:06:18;23.90;;;14.83;;
72676;SDS011;60755;51.374;10.662;2023-04-25T07:08:47;14.70;;;9.60;;
72676;SDS011;60755;51.374;10.662;2023-04-25T07:11:14;9.33;;;5.67;;
72676;SDS011;60755;51.374;10.662;2023-04-25T07:13:42;13.47;;;5.80;;
72676;SDS011;60755;51.374;10.662;2023-04-25T07:16:10;11.97;;;4.40;;
72676;SDS011;60755;51.374;10.662;2023-04-25T07:18:37;12.57;;;4.93;;
72676;SDS011;60755;51.374;10.662;2023-04-25T07:21:04;16.20;;;5.33;;
72676;SDS011;60755;51.374;10.662;2023-04-25T07:23:33;8.77;;;5.23;;
72676;SDS011;60755;51.374;10.662;2023-04-25T07:26:09;11.00;;;4.37;;
72676;SDS011;60755;51.374;10.662;2023-04-25T07:28:42;17.83;;;5.67;;
72676;SDS011;60755;51.374;10.662;2023-04-25T07:31:09;21.40;;;8.97;;
72676;SDS011;60755;51.374;10.662;2023-04-25T07:33:37;17.97;;;4.90;;
72676;SDS011;60755;51.374;10.662;2023-04-25T07:36:04;11.20;;;4.73;;
72676;SDS011;60755;51.374;10.662;2023-04-25T07:38:32;12.90;;;4.80;;
72676;SDS011;60755;51.374;10.662;2023-04-25T07:41:00;12.70;;;5.20;;
72676;SDS011;60755;51.374;10.662;2023-04-25T07:43:29;12.73;;;4.00;;
72676;SDS011;60755;51.374;10.662;2023-04-25T07:45:58;11.90;;;4.70;;
72676;SDS011;60755;51.374;10.662;2023-04-25T07:48:28;14.97;;;4.57;;
72676;SDS011;60755;51.374;10.662;2023-04-25T07:50:56;14.20;;;5.53;;
72676;SDS011;60755;51.374;10.662;2023-04-25T07:53:23;10.47;;;4.50;;
72676;SDS011;60755;51.374;10.662;2023-04-25T07:55:58;8.97;;;4.57;;
72676;SDS011;60755;51.374;10.662;2023-04-25T07:58:29;17.73;;;4.97;;
72676;SDS011;60755;51.374;10.662;2023-04-25T08:00:59;13.50;;;6.23;;
72676;SDS011;60755;51.374;10.662;2023-04-25T08:03:56;15.73;;;5.13;;
72676;SDS011;60755;51.374;10.662;2023-04-25T08:06:33;11.93;;;4.30;;
72676;SDS011;60755;51.374;10.662;2023-04-25T08:09:08;13.23;;;4.60;;
72676;SDS011;60755;51.374;10.662;2023-04-25T08:11:38;14.57;;;4.90;;
72676;SDS011;60755;51.374;10.662;2023-04-25T08:14:08;15.47;;;6.90;;
72676;SDS011;60755;51.374;10.662;2023-04-25T08:16:37;15.00;;;4.37;;
72676;SDS011;60755;51.374;10.662;2023-04-25T08:19:05;11.50;;;4.77;;
72676;SDS011;60755;51.374;10.662;2023-04-25T08:21:32;13.00;;;4.70;;
72676;SDS011;60755;51.374;10.662;2023-04-25T08:24:04;11.90;;;3.97;;
72676;SDS011;60755;51.374;10.662;2023-04-25T08:26:35;17.07;;;4.03;;
72676;SDS011;60755;51.374;10.662;2023-04-25T08:29:03;9.90;;;3.93;;
72676;SDS011;60755;51.374;10.662;2023-04-25T08:31:32;8.23;;;3.27;;
72676;SDS011;60755;51.374;10.662;2023-04-25T08:34:02;18.47;;;4.27;;
72676;SDS011;60755;51.374;10.662;2023-04-25T08:36:37;15.17;;;5.27;;
72676;SDS011;60755;51.374;10.662;2023-04-25T08:39:05;10.67;;;3.43;;
72676;SDS011;60755;51.374;10.662;2023-04-25T08:41:39;9.43;;;3.80;;
72676;SDS011;60755;51.374;10.662;2023-04-25T08:44:07;12.23;;;4.70;;
72676;SDS011;60755;51.374;10.662;2023-04-25T08:46:39;13.27;;;4.97;;
72676;SDS011;60755;51.374;10.662;2023-04-25T08:49:17;9.80;;;4.00;;
72676;SDS011;60755;51.374;10.662;2023-04-25T08:51:45;10.93;;;3.27;;
72676;SDS011;60755;51.374;10.662;2023-04-25T08:54:15;13.33;;;4.03;;
72676;SDS011;60755;51.374;10.662;2023-04-25T08:56:43;9.93;;;3.67;;
72676;SDS011;60755;51.374;10.662;2023-04-25T08:59:13;11.10;;;3.73;;
72676;SDS011;60755;51.374;10.662;2023-04-25T09:01:43;14.57;;;4.07;;
72676;SDS011;60755;51.374;10.662;2023-04-25T09:04:11;11.30;;;4.47;;
72676;SDS011;60755;51.374;10.662;2023-04-25T09:06:39;9.77;;;3.13;;
72676;SDS011;60755;51.374;10.662;2023-04-25T09:09:08;12.77;;;4.37;;
72676;SDS011;60755;51.374;10.662;2023-04-25T09:11:36;8.30;;;3.27;;
72676;SDS011;60755;51.374;10.662;2023-04-25T09:14:12;12.60;;;3.33;;
72676;SDS011;60755;51.374;10.662;2023-04-25T09:17:04;11.40;;;3.40;;
72676;SDS011;60755;51.374;10.662;2023-04-25T09:19:42;10.60;;;3.70;;
72676;SDS011;60755;51.374;10.662;2023-04-25T09:22:21;12.20;;;3.53;;
72676;SDS011;60755;51.374;10.662;2023-04-25T09:24:49;11.00;;;3.57;;
72676;SDS011;60755;51.374;10.662;2023-04-25T09:27:18;9.03;;;3.60;;
72676;SDS011;60755;51.374;10.662;2023-04-25T09:29:56;12.03;;;3.50;;
72676;SDS011;60755;51.374;10.662;2023-04-25T09:32:26;11.33;;;4.20;;
72676;SDS011;60755;51.374;10.662;2023-04-25T09:34:56;7.70;;;4.00;;
72676;SDS011;60755;51.374;10.662;2023-04-25T09:37:27;11.97;;;4.27;;
72676;SDS011;60755;51.374;10.662;2023-04-25T09:40:13;13.20;;;3.60;;
72676;SDS011;60755;51.374;10.662;2023-04-25T09:42:57;8.33;;;3.60;;
72676;SDS011;60755;51.374;10.662;2023-04-25T09:45:27;11.97;;;3.60;;
72676;SDS011;60755;51.374;10.662;2023-04-25T09:47:59;8.07;;;3.17;;
72676;SDS011;60755;51.374;10.662;2023-04-25T09:50:32;12.37;;;3.60;;
72676;SDS011;60755;51.374;10.662;2023-04-25T09:53:07;17.87;;;6.60;;
72676;SDS011;60755;51.374;10.662;2023-04-25T09:55:54;16.10;;;6.50;;
72676;SDS011;60755;51.374;10.662;2023-04-25T09:58:23;9.67;;;4.90;;
72676;SDS011;60755;51.374;10.662;2023-04-25T10:00:51;10.37;;;4.20;;
72676;SDS011;60755;51.374;10.662;2023-04-25T10:03:32;12.47;;;5.17;;
72676;SDS011;60755;51.374;10.662;2023-04-25T10:06:19;8.70;;;3.77;;
72676;SDS011;60755;51.374;10.662;2023-04-25T10:08:50;9.30;;;3.70;;
72676;SDS011;60755;51.374;10.662;2023-04-25T10:11:17;12.30;;;4.33;;
72676;SDS011;60755;51.374;10.662;2023-04-25T10:13:45;5.97;;;3.40;;
72676;SDS011;60755;51.374;10.662;2023-04-25T10:16:13;8.20;;;3.13;;
72676;SDS011;60755;51.374;10.662;2023-04-25T10:18:43;8.40;;;3.10;;
72676;SDS011;60755;51.374;10.662;2023-04-25T10:21:09;8.77;;;3.57;;
72676;SDS011;60755;51.374;10.662;2023-04-25T10:23:37;5.67;;;2.70;;
72676;SDS011;60755;51.374;10.662;2023-04-25T10:26:05;10.87;;;3.60;;
72676;SDS011;60755;51.374;10.662;2023-04-25T10:31:23;6.00;;;3.30;;
72676;SDS011;60755;51.374;10.662;2023-04-25T10:33:51;9.60;;;4.20;;
72676;SDS011;60755;51.374;10.662;2023-04-25T10:36:20;11.53;;;3.70;;
72676;SDS011;60755;51.374;10.662;2023-04-25T10:38:48;8.90;;;3.90;;
72676;SDS011;60755;51.374;10.662;2023-04-25T10:41:17;7.07;;;3.90;;
72676;SDS011;60755;51.374;10.662;2023-04-25T10:43:45;5.70;;;3.40;;
72676;SDS011;60755;51.374;10.662;2023-04-25T10:46:17;9.43;;;3.37;;
72676;SDS011;60755;51.374;10.662;2023-04-25T10:48:46;7.77;;;3.13;;
72676;SDS011;60755;51.374;10.662;2023-04-25T10:51:19;8.70;;;3.60;;
72676;SDS011;60755;51.374;10.662;2023-04-25T10:53:58;9.47;;;3.00;;
72676;SDS011;60755;51.374;10.662;2023-04-25T10:56:27;5.20;;;3.10;;
72676;SDS011;60755;51.374;10.662;2023-04-25T10:59:05;6.47;;;2.67;;
72676;SDS011;60755;51.374;10.662;2023-04-25T11:01:37;7.03;;;3.17;;
72676;SDS011;60755;51.374;10.662;2023-04-25T11:04:05;4.73;;;2.73;;
72676;SDS011;60755;51.374;10.662;2023-04-25T11:06:37;7.70;;;2.60;;
72676;SDS011;60755;51.374;10.662;2023-04-25T11:09:13;6.40;;;2.27;;
72676;SDS011;60755;51.374;10.662;2023-04-25T11:11:40;6.10;;;2.50;;
72676;SDS011;60755;51.374;10.662;2023-04-25T11:14:07;3.83;;;2.50;;
72676;SDS011;60755;51.374;10.662;2023-04-25T11:16:34;6.33;;;2.43;;
72676;SDS011;60755;51.374;10.662;2023-04-25T11:19:01;6.70;;;2.47;;
72676;SDS011;60755;51.374;10.662;2023-04-25T11:21:30;4.70;;;2.60;;
72676;SDS011;60755;51.374;10.662;2023-04-25T11:23:59;6.03;;;3.13;;
72676;SDS011;60755;51.374;10.662;2023-04-25T11:26:26;7.23;;;3.03;;
72676;SDS011;60755;51.374;10.662;2023-04-25T11:28:56;9.40;;;3.07;;
72676;SDS011;60755;51.374;10.662;2023-04-25T11:31:24;9.00;;;3.03;;
72676;SDS011;60755;51.374;10.662;2023-04-25T11:33:52;7.93;;;2.80;;
72676;SDS011;60755;51.374;10.662;2023-04-25T11:36:20;4.57;;;2.77;;
72676;SDS011;60755;51.374;10.662;2023-04-25T11:38:46;6.07;;;2.80;;
72676;SDS011;60755;51.374;10.662;2023-04-25T11:41:15;5.27;;;2.57;;
72676;SDS011;60755;51.374;10.662;2023-04-25T11:43:42;6.37;;;2.83;;
72676;SDS011;60755;51.374;10.662;2023-04-25T11:46:10;9.50;;;2.80;;
72676;SDS011;60755;51.374;10.662;2023-04-25T11:48:38;5.47;;;2.70;;
72676;SDS011;60755;51.374;10.662;2023-04-25T11:51:05;7.67;;;2.93;;
72676;SDS011;60755;51.374;10.662;2023-04-25T11:53:32;7.83;;;3.10;;
72676;SDS011;60755;51.374;10.662;2023-04-25T11:55:59;6.67;;;2.53;;
72676;SDS011;60755;51.374;10.662;2023-04-25T11:58:27;6.13;;;2.57;;
72676;SDS011;60755;51.374;10.662;2023-04-25T12:00:54;6.10;;;2.60;;
72676;SDS011;60755;51.374;10.662;2023-04-25T12:03:24;3.60;;;2.23;;
72676;SDS011;60755;51.374;10.662;2023-04-25T12:06:01;3.40;;;2.20;;
72676;SDS011;60755;51.374;10.662;2023-04-25T12:08:29;3.30;;;2.00;;
72676;SDS011;60755;51.374;10.662;2023-04-25T12:10:56;2.60;;;2.13;;
72676;SDS011;60755;51.374;10.662;2023-04-25T12:13:24;2.37;;;2.10;;
72676;SDS011;60755;51.374;10.662;2023-04-25T12:15:55;5.13;;;2.53;;
72676;SDS011;60755;51.374;10.662;2023-04-25T12:18:22;5.77;;;2.83;;
72676;SDS011;60755;51.374;10.662;2023-04-25T12:20:52;7.87;;;2.80;;
72676;SDS011;60755;51.374;10.662;2023-04-25T12:23:25;4.93;;;2.83;;
72676;SDS011;60755;51.374;10.662;2023-04-25T12:25:53;6.30;;;2.70;;
72676;SDS011;60755;51.374;10.662;2023-04-25T12:28:21;9.03;;;2.80;;
72676;SDS011;60755;51.374;10.662;2023-04-25T12:30:57;7.47;;;2.67;;
72676;SDS011;60755;51.374;10.662;2023-04-25T12:33:26;7.77;;;3.07;;
72676;SDS011;60755;51.374;10.662;2023-04-25T12:35:55;4.83;;;2.20;;
72676;SDS011;60755;51.374;10.662;2023-04-25T12:38:23;4.33;;;2.60;;
72676;SDS011;60755;51.374;10.662;2023-04-25T12:40:51;4.03;;;2.53;;
72676;SDS011;60755;51.374;10.662;2023-04-25T12:43:19;5.03;;;2.60;;
72676;SDS011;60755;51.374;10.662;2023-04-25T12:45:47;3.97;;;2.50;;
72676;SDS011;60755;51.374;10.662;2023-04-25T12:48:16;8.03;;;2.77;;
72676;SDS011;60755;51.374;10.662;2023-04-25T12:50:43;7.83;;;3.23;;
72676;SDS011;60755;51.374;10.662;2023-04-25T12:53:13;8.13;;;2.50;;
72676;SDS011;60755;51.374;10.662;2023-04-25T12:55:40;7.30;;;2.83;;
72676;SDS011;60755;51.374;10.662;2023-04-25T12:58:07;5.60;;;2.70;;
72676;SDS011;60755;51.374;10.662;2023-04-25T13:00:34;5.27;;;3.03;;
72676;SDS011;60755;51.374;10.662;2023-04-25T13:03:01;4.53;;;2.40;;
72676;SDS011;60755;51.374;10.662;2023-04-25T13:05:29;4.70;;;2.27;;
72676;SDS011;60755;51.374;10.662;2023-04-25T13:07:56;7.40;;;3.23;;
72676;SDS011;60755;51.374;10.662;2023-04-25T13:10:23;4.13;;;2.70;;
72676;SDS011;60755;51.374;10.662;2023-04-25T13:12:50;6.63;;;3.00;;
72676;SDS011;60755;51.374;10.662;2023-04-25T13:15:17;6.93;;;3.73;;
72676;SDS011;60755;51.374;10.662;2023-04-25T13:17:44;5.87;;;3.20;;
72676;SDS011;60755;51.374;10.662;2023-04-25T13:20:11;4.53;;;2.93;;
72676;SDS011;60755;51.374;10.662;2023-04-25T13:22:41;9.80;;;3.07;;
72676;SDS011;60755;51.374;10.662;2023-04-25T13:25:10;7.03;;;3.10;;
72676;SDS011;60755;51.374;10.662;2023-04-25T13:27:37;3.90;;;2.60;;
72676;SDS011;60755;51.374;10.662;2023-04-25T13:30:06;4.73;;;2.57;;
72676;SDS011;60755;51.374;10.662;2023-04-25T13:32:34;5.10;;;2.70;;
72676;SDS011;60755;51.374;10.662;2023-04-25T13:35:02;8.10;;;4.13;;
72676;SDS011;60755;51.374;10.662;2023-04-25T13:37:30;4.50;;;2.90;;
72676;SDS011;60755;51.374;10.662;2023-04-25T13:40:00;23.30;;;11.20;;
72676;SDS011;60755;51.374;10.662;2023-04-25T13:42:29;3.70;;;3.20;;
72676;SDS011;60755;51.374;10.662;2023-04-25T13:44:56;4.90;;;3.20;;
72676;SDS011;60755;51.374;10.662;2023-04-25T13:47:23;7.63;;;2.57;;
72676;SDS011;60755;51.374;10.662;2023-04-25T13:49:51;5.20;;;2.40;;
72676;SDS011;60755;51.374;10.662;2023-04-25T13:52:18;5.13;;;3.50;;
72676;SDS011;60755;51.374;10.662;2023-04-25T13:54:45;4.97;;;3.17;;
72676;SDS011;60755;51.374;10.662;2023-04-25T13:57:14;6.33;;;2.40;;
72676;SDS011;60755;51.374;10.662;2023-04-25T13:59:41;5.40;;;2.93;;
72676;SDS011;60755;51.374;10.662;2023-04-25T14:02:08;3.37;;;2.53;;
72676;SDS011;60755;51.374;10.662;2023-04-25T14:04:35;5.63;;;2.90;;
72676;SDS011;60755;51.374;10.662;2023-04-25T14:07:02;5.87;;;2.77;;
72676;SDS011;60755;51.374;10.662;2023-04-25T14:09:30;3.93;;;3.23;;
72676;SDS011;60755;51.374;10.662;2023-04-25T14:11:57;6.77;;;2.97;;
72676;SDS011;60755;51.374;10.662;2023-04-25T14:14:26;5.93;;;2.83;;
72676;SDS011;60755;51.374;10.662;2023-04-25T14:16:53;9.50;;;4.77;;
72676;SDS011;60755;51.374;10.662;2023-04-25T14:19:22;7.90;;;3.23;;
72676;SDS011;60755;51.374;10.662;2023-04-25T14:21:49;6.23;;;3.03;;
72676;SDS011;60755;51.374;10.662;2023-04-25T14:24:16;4.47;;;2.83;;
72676;SDS011;60755;51.374;10.662;2023-04-25T14:26:43;6.37;;;3.77;;
72676;SDS011;60755;51.374;10.662;2023-04-25T14:29:10;3.23;;;2.60;;
72676;SDS011;60755;51.374;10.662;2023-04-25T14:31:39;4.00;;;2.47;;
72676;SDS011;60755;51.374;10.662;2023-04-25T14:34:07;6.13;;;2.97;;
72676;SDS011;60755;51.374;10.662;2023-04-25T14:36:35;3.73;;;2.50;;
72676;SDS011;60755;51.374;10.662;2023-04-25T14:39:02;4.97;;;2.70;;
72676;SDS011;60755;51.374;10.662;2023-04-25T14:41:30;4.73;;;2.90;;
72676;SDS011;60755;51.374;10.662;2023-04-25T14:43:57;7.07;;;3.13;;
72676;SDS011;60755;51.374;10.662;2023-04-25T14:46:24;6.00;;;4.00;;
72676;SDS011;60755;51.374;10.662;2023-04-25T14:48:52;5.90;;;2.80;;